sensor_id;sensor_type;location;lat;lon;timestamp;pressure;altitude;pressure_sealevel;temperature;humidity
46199;BME280;31928;52.104;10.030;2023-01-20T00:01:37;99930.03;;;4.89;54.95
46199;BME280;31928;52.104;10.030;2023-01-20T00:04:04;99932.69;;;4.89;54.88
46199;BME280;31928;52.104;10.030;2023-01-20T00:06:31;99940.63;;;4.89;54.69
46199;BME280;31928;52.104;10.030;2023-01-20T00:09:00;99944.13;;;4.90;54.65
46199;BME280;31928;52.104;10.030;2023-01-20T00:11:27;99945.34;;;4.87;54.53
46199;BME280;31928;52.104;10.030;2023-01-20T00:13:55;99951.66;;;4.86;54.80
46199;BME280;31928;52.104;10.030;2023-01-20T00:16:23;99954.50;;;4.85;54.68
46199;BME280;31928;52.104;10.030;2023-01-20T00:18:49;99954.69;;;4.83;54.38
46199;BME280;31928;52.104;10.030;2023-01-20T00:21:17;99958.53;;;4.81;54.28
46199;BME280;31928;52.104;10.030;2023-01-20T00:23:45;99960.34;;;4.80;54.49
46199;BME280;31928;52.104;10.030;2023-01-20T00:26:17;99961.00;;;4.82;54.18
46199;BME280;31928;52.104;10.030;2023-01-20T00:28:45;99967.03;;;4.76;54.62
46199;BME280;31928;52.104;10.030;2023-01-20T00:31:13;99963.75;;;4.75;54.41
46199;BME280;31928;52.104;10.030;2023-01-20T00:33:40;99973.72;;;4.73;54.43
46199;BME280;31928;52.104;10.030;2023-01-20T00:36:07;99971.97;;;4.94;53.68
46199;BME280;31928;52.104;10.030;2023-01-20T00:38:34;99971.47;;;4.70;54.62
46199;BME280;31928;52.104;10.030;2023-01-20T00:41:01;99978.16;;;4.66;54.48
46199;BME280;31928;52.104;10.030;2023-01-20T00:43:28;99978.50;;;4.63;54.66
46199;BME280;31928;52.104;10.030;2023-01-20T00:45:54;99985.84;;;4.61;54.81
46199;BME280;31928;52.104;10.030;2023-01-20T00:48:21;99987.03;;;4.58;54.84
46199;BME280;31928;52.104;10.030;2023-01-20T00:50:48;99988.22;;;4.56;54.58
46199;BME280;31928;52.104;10.030;2023-01-20T00:53:14;99985.63;;;4.76;53.90
46199;BME280;31928;52.104;10.030;2023-01-20T00:55:41;99992.25;;;4.52;54.66
46199;BME280;31928;52.104;10.030;2023-01-20T00:58:07;99992.59;;;4.49;55.01
46199;BME280;31928;52.104;10.030;2023-01-20T01:00:34;99996.63;;;4.45;55.12
46199;BME280;31928;52.104;10.030;2023-01-20T01:03:01;100002.31;;;4.42;55.06
46199;BME280;31928;52.104;10.030;2023-01-20T01:05:27;100005.97;;;4.41;54.99
46199;BME280;31928;52.104;10.030;2023-01-20T01:07:54;100005.16;;;4.40;55.33
46199;BME280;31928;52.104;10.030;2023-01-20T01:10:21;100012.91;;;4.42;55.53
46199;BME280;31928;52.104;10.030;2023-01-20T01:12:47;100013.28;;;4.39;55.39
46199;BME280;31928;52.104;10.030;2023-01-20T01:15:14;100007.13;;;4.38;55.29
46199;BME280;31928;52.104;10.030;2023-01-20T01:17:41;100017.69;;;4.61;54.39
46199;BME280;31928;52.104;10.030;2023-01-20T01:20:11;100021.88;;;4.41;55.11
46199;BME280;31928;52.104;10.030;2023-01-20T01:22:37;100021.44;;;4.37;55.28
46199;BME280;31928;52.104;10.030;2023-01-20T01:25:04;100014.38;;;4.59;54.26
46199;BME280;31928;52.104;10.030;2023-01-20T01:27:31;100023.91;;;4.39;55.26
46199;BME280;31928;52.104;10.030;2023-01-20T01:29:57;100025.91;;;4.37;55.61
46199;BME280;31928;52.104;10.030;2023-01-20T01:32:24;100026.91;;;4.36;55.86
46199;BME280;31928;52.104;10.030;2023-01-20T01:34:50;100030.59;;;4.35;55.99
46199;BME280;31928;52.104;10.030;2023-01-20T01:37:17;100031.41;;;4.35;55.70
46199;BME280;31928;52.104;10.030;2023-01-20T01:39:44;100038.53;;;4.35;56.06
46199;BME280;31928;52.104;10.030;2023-01-20T01:42:11;100047.13;;;4.37;56.01
46199;BME280;31928;52.104;10.030;2023-01-20T01:47:54;100042.09;;;4.42;56.03
46199;BME280;31928;52.104;10.030;2023-01-20T01:50:27;100043.09;;;4.41;55.65
46199;BME280;31928;52.104;10.030;2023-01-20T01:52:56;100037.34;;;4.37;55.93
46199;BME280;31928;52.104;10.030;2023-01-20T01:55:24;100037.28;;;4.60;54.71
46199;BME280;31928;52.104;10.030;2023-01-20T01:57:52;100044.75;;;4.42;55.66
46199;BME280;31928;52.104;10.030;2023-01-20T02:00:21;100038.97;;;4.38;55.56
46199;BME280;31928;52.104;10.030;2023-01-20T02:02:48;100038.91;;;4.61;54.50
46199;BME280;31928;52.104;10.030;2023-01-20T02:05:15;100040.25;;;4.42;55.71
46199;BME280;31928;52.104;10.030;2023-01-20T02:07:45;100049.25;;;4.41;55.50
46199;BME280;31928;52.104;10.030;2023-01-20T02:10:14;100041.47;;;4.40;55.67
46199;BME280;31928;52.104;10.030;2023-01-20T02:12:43;100058.41;;;4.39;55.58
46199;BME280;31928;52.104;10.030;2023-01-20T02:15:13;100055.09;;;4.37;55.86
46199;BME280;31928;52.104;10.030;2023-01-20T02:17:49;100059.41;;;4.38;55.43
46199;BME280;31928;52.104;10.030;2023-01-20T02:34:53;100069.81;;;4.39;55.38
46199;BME280;31928;52.104;10.030;2023-01-20T02:37:24;100073.94;;;4.42;55.66
46199;BME280;31928;52.104;10.030;2023-01-20T02:40:08;100075.97;;;4.40;55.74
46199;BME280;31928;52.104;10.030;2023-01-20T02:50:39;100082.38;;;4.45;55.69
46199;BME280;31928;52.104;10.030;2023-01-20T02:53:10;100088.88;;;4.43;55.80
46199;BME280;31928;52.104;10.030;2023-01-20T02:55:45;100091.16;;;4.46;55.51
46199;BME280;31928;52.104;10.030;2023-01-20T02:58:16;100086.84;;;4.45;55.90
46199;BME280;31928;52.104;10.030;2023-01-20T03:00:54;100094.47;;;4.48;55.66
46199;BME280;31928;52.104;10.030;2023-01-20T03:03:27;100093.81;;;4.46;56.07
46199;BME280;31928;52.104;10.030;2023-01-20T03:05:57;100091.34;;;4.44;55.84
46199;BME280;31928;52.104;10.030;2023-01-20T03:08:28;100089.50;;;4.45;55.94
46199;BME280;31928;52.104;10.030;2023-01-20T03:11:01;100090.16;;;4.47;55.90
46199;BME280;31928;52.104;10.030;2023-01-20T03:16:20;100102.88;;;4.51;55.63
46199;BME280;31928;52.104;10.030;2023-01-20T03:18:48;100102.06;;;4.51;55.65
46199;BME280;31928;52.104;10.030;2023-01-20T03:21:15;100094.91;;;4.51;55.35
46199;BME280;31928;52.104;10.030;2023-01-20T03:23:48;100099.69;;;4.56;55.35
46199;BME280;31928;52.104;10.030;2023-01-20T03:26:17;100103.34;;;4.55;55.53
46199;BME280;31928;52.104;10.030;2023-01-20T03:28:45;100101.69;;;4.54;55.12
46199;BME280;31928;52.104;10.030;2023-01-20T03:31:15;100103.34;;;4.55;55.19
46199;BME280;31928;52.104;10.030;2023-01-20T03:33:45;100106.28;;;4.60;55.52
46199;BME280;31928;52.104;10.030;2023-01-20T03:36:13;100114.44;;;4.58;55.03
46199;BME280;31928;52.104;10.030;2023-01-20T03:38:42;100120.56;;;4.59;55.16
46199;BME280;31928;52.104;10.030;2023-01-20T03:46:31;100134.56;;;4.67;55.14
46199;BME280;31928;52.104;10.030;2023-01-20T03:49:14;100138.69;;;4.70;54.75
46199;BME280;31928;52.104;10.030;2023-01-20T03:54:24;100146.38;;;4.65;54.76
46199;BME280;31928;52.104;10.030;2023-01-20T03:56:54;100145.09;;;4.61;54.75
46199;BME280;31928;52.104;10.030;2023-01-20T03:59:24;100144.09;;;4.62;54.91
46199;BME280;31928;52.104;10.030;2023-01-20T04:01:51;100144.91;;;4.62;55.16
46199;BME280;31928;52.104;10.030;2023-01-20T04:04:20;100143.44;;;4.60;55.09
46199;BME280;31928;52.104;10.030;2023-01-20T04:06:48;100149.41;;;4.62;54.87
46199;BME280;31928;52.104;10.030;2023-01-20T04:09:21;100149.41;;;4.62;54.89
46199;BME280;31928;52.104;10.030;2023-01-20T04:11:49;100152.41;;;4.59;55.16
46199;BME280;31928;52.104;10.030;2023-01-20T04:14:16;100146.28;;;4.58;54.95
46199;BME280;31928;52.104;10.030;2023-01-20T04:16:47;100154.19;;;4.80;54.13
46199;BME280;31928;52.104;10.030;2023-01-20T04:19:15;100151.22;;;4.61;54.93
46199;BME280;31928;52.104;10.030;2023-01-20T04:21:47;100158.19;;;4.62;54.82
46199;BME280;31928;52.104;10.030;2023-01-20T04:26:44;100154.44;;;4.57;54.96
46199;BME280;31928;52.104;10.030;2023-01-20T04:29:11;100159.72;;;4.57;54.84
46199;BME280;31928;52.104;10.030;2023-01-20T04:31:38;100160.06;;;4.54;54.48
46199;BME280;31928;52.104;10.030;2023-01-20T04:34:05;100167.03;;;4.55;54.57
46199;BME280;31928;52.104;10.030;2023-01-20T04:36:31;100161.72;;;4.55;54.42
46199;BME280;31928;52.104;10.030;2023-01-20T04:38:58;100159.25;;;4.53;54.17
46199;BME280;31928;52.104;10.030;2023-01-20T04:41:24;100164.56;;;4.53;54.05
46199;BME280;31928;52.104;10.030;2023-01-20T04:43:51;100171.06;;;4.51;54.24
46199;BME280;31928;52.104;10.030;2023-01-20T04:46:18;100169.59;;;4.48;54.23
46199;BME280;31928;52.104;10.030;2023-01-20T04:48:45;100171.75;;;4.45;54.09
46199;BME280;31928;52.104;10.030;2023-01-20T04:51:11;100177.06;;;4.67;53.96
46199;BME280;31928;52.104;10.030;2023-01-20T04:53:38;100178.09;;;4.44;54.18
46199;BME280;31928;52.104;10.030;2023-01-20T04:56:10;100186.06;;;4.44;54.43
46199;BME280;31928;52.104;10.030;2023-01-20T04:58:37;100183.44;;;4.36;54.71
46199;BME280;31928;52.104;10.030;2023-01-20T05:01:04;100186.47;;;4.33;54.83
46199;BME280;31928;52.104;10.030;2023-01-20T05:03:31;100188.50;;;4.31;54.73
46199;BME280;31928;52.104;10.030;2023-01-20T05:05:57;100186.84;;;4.30;54.84
46199;BME280;31928;52.104;10.030;2023-01-20T05:08:24;100185.34;;;4.27;55.11
46199;BME280;31928;52.104;10.030;2023-01-20T05:10:50;100186.34;;;4.26;54.95
46199;BME280;31928;52.104;10.030;2023-01-20T05:13:17;100192.84;;;4.24;58.20
46199;BME280;31928;52.104;10.030;2023-01-20T05:15:43;100183.81;;;4.33;61.50
46199;BME280;31928;52.104;10.030;2023-01-20T05:18:10;100187.78;;;4.51;64.00
46199;BME280;31928;52.104;10.030;2023-01-20T05:20:37;100189.53;;;4.81;65.79
46199;BME280;31928;52.104;10.030;2023-01-20T05:23:03;100199.38;;;5.09;66.01
46199;BME280;31928;52.104;10.030;2023-01-20T05:25:30;100194.88;;;5.38;66.68
46199;BME280;31928;52.104;10.030;2023-01-20T05:27:57;100200.63;;;5.71;67.29
46199;BME280;31928;52.104;10.030;2023-01-20T05:30:24;100197.72;;;6.01;67.79
46199;BME280;31928;52.104;10.030;2023-01-20T05:32:50;100199.72;;;6.34;67.98
46199;BME280;31928;52.104;10.030;2023-01-20T05:35:17;100201.88;;;6.66;65.49
46199;BME280;31928;52.104;10.030;2023-01-20T05:37:44;100202.72;;;6.94;60.47
46199;BME280;31928;52.104;10.030;2023-01-20T05:40:11;100200.13;;;7.34;59.90
46199;BME280;31928;52.104;10.030;2023-01-20T05:42:38;100212.41;;;7.28;55.03
46199;BME280;31928;52.104;10.030;2023-01-20T05:45:05;100211.59;;;7.34;52.99
46199;BME280;31928;52.104;10.030;2023-01-20T05:47:32;100215.28;;;7.33;51.61
46199;BME280;31928;52.104;10.030;2023-01-20T05:49:58;100213.22;;;7.29;51.34
46199;BME280;31928;52.104;10.030;2023-01-20T05:52:25;100218.91;;;7.19;50.52
46199;BME280;31928;52.104;10.030;2023-01-20T05:54:51;100215.31;;;7.06;50.47
46199;BME280;31928;52.104;10.030;2023-01-20T05:57:18;100211.72;;;6.93;50.59
46199;BME280;31928;52.104;10.030;2023-01-20T05:59:44;100231.47;;;6.77;50.35
46199;BME280;31928;52.104;10.030;2023-01-20T06:02:13;100237.25;;;6.60;50.57
46199;BME280;31928;52.104;10.030;2023-01-20T06:04:47;100239.97;;;6.46;50.77
46199;BME280;31928;52.104;10.030;2023-01-20T06:07:14;100235.47;;;6.25;50.81
46199;BME280;31928;52.104;10.030;2023-01-20T06:09:40;100243.88;;;6.08;51.47
46199;BME280;31928;52.104;10.030;2023-01-20T06:12:07;100245.94;;;5.92;51.44
46199;BME280;31928;52.104;10.030;2023-01-20T06:14:34;100254.09;;;5.76;51.80
46199;BME280;31928;52.104;10.030;2023-01-20T06:17:00;100255.91;;;5.61;52.01
46199;BME280;31928;52.104;10.030;2023-01-20T06:19:27;100257.56;;;5.47;52.47
46199;BME280;31928;52.104;10.030;2023-01-20T06:21:53;100254.72;;;5.34;52.52
46199;BME280;31928;52.104;10.030;2023-01-20T06:24:20;100261.31;;;5.24;52.67
46199;BME280;31928;52.104;10.030;2023-01-20T06:26:49;100264.03;;;5.16;52.87
46199;BME280;31928;52.104;10.030;2023-01-20T06:29:16;100266.50;;;5.03;53.17
46199;BME280;31928;52.104;10.030;2023-01-20T06:31:42;100269.00;;;5.19;52.86
46199;BME280;31928;52.104;10.030;2023-01-20T06:34:10;100279.56;;;4.90;53.29
46199;BME280;31928;52.104;10.030;2023-01-20T06:36:37;100280.63;;;4.81;53.50
46199;BME280;31928;52.104;10.030;2023-01-20T06:39:04;100285.47;;;5.00;53.14
46199;BME280;31928;52.104;10.030;2023-01-20T06:41:30;100283.69;;;4.71;53.77
46199;BME280;31928;52.104;10.030;2023-01-20T06:43:56;100289.72;;;4.65;53.76
46199;BME280;31928;52.104;10.030;2023-01-20T06:46:23;100298.41;;;4.59;53.94
46199;BME280;31928;52.104;10.030;2023-01-20T06:48:50;100296.47;;;4.53;54.22
46199;BME280;31928;52.104;10.030;2023-01-20T06:51:18;100304.13;;;4.48;54.31
46199;BME280;31928;52.104;10.030;2023-01-20T06:53:46;100304.44;;;4.45;54.63
46199;BME280;31928;52.104;10.030;2023-01-20T06:56:13;100305.00;;;4.40;54.40
46199;BME280;31928;52.104;10.030;2023-01-20T06:58:41;100315.97;;;4.37;54.48
46199;BME280;31928;52.104;10.030;2023-01-20T07:01:28;100323.03;;;4.45;54.18
46199;BME280;31928;52.104;10.030;2023-01-20T07:03:55;100317.34;;;4.56;53.85
46199;BME280;31928;52.104;10.030;2023-01-20T07:06:30;100330.03;;;4.38;54.10
46199;BME280;31928;52.104;10.030;2023-01-20T07:08:58;100324.47;;;4.25;53.78
46199;BME280;31928;52.104;10.030;2023-01-20T07:11:26;100336.28;;;4.22;54.11
46199;BME280;31928;52.104;10.030;2023-01-20T07:13:53;100335.94;;;4.17;54.01
46199;BME280;31928;52.104;10.030;2023-01-20T07:16:20;100332.81;;;4.14;54.46
46199;BME280;31928;52.104;10.030;2023-01-20T07:18:48;100348.72;;;4.14;54.70
46199;BME280;31928;52.104;10.030;2023-01-20T07:21:16;100351.25;;;4.08;54.97
46199;BME280;31928;52.104;10.030;2023-01-20T07:23:43;100340.19;;;4.04;54.88
46199;BME280;31928;52.104;10.030;2023-01-20T07:26:11;100349.75;;;4.05;54.96
46199;BME280;31928;52.104;10.030;2023-01-20T07:28:38;100345.16;;;3.99;55.12
46199;BME280;31928;52.104;10.030;2023-01-20T07:31:07;100352.94;;;4.01;55.23
46199;BME280;31928;52.104;10.030;2023-01-20T07:33:35;100349.97;;;3.96;55.01
46199;BME280;31928;52.104;10.030;2023-01-20T07:36:02;100360.75;;;3.94;54.91
46199;BME280;31928;52.104;10.030;2023-01-20T07:38:29;100353.16;;;3.91;55.28
46199;BME280;31928;52.104;10.030;2023-01-20T07:41:00;100357.28;;;3.94;55.24
46199;BME280;31928;52.104;10.030;2023-01-20T07:43:30;100365.75;;;3.89;55.13
46199;BME280;31928;52.104;10.030;2023-01-20T07:45:58;100358.78;;;3.88;54.83
46199;BME280;31928;52.104;10.030;2023-01-20T07:48:26;100372.22;;;3.87;54.57
46199;BME280;31928;52.104;10.030;2023-01-20T07:50:54;100370.53;;;3.86;54.38
46199;BME280;31928;52.104;10.030;2023-01-20T07:53:28;100377.00;;;3.83;54.30
46199;BME280;31928;52.104;10.030;2023-01-20T07:55:54;100381.84;;;3.80;54.39
46199;BME280;31928;52.104;10.030;2023-01-20T07:58:21;100387.97;;;3.80;54.96
46199;BME280;31928;52.104;10.030;2023-01-20T08:00:47;100378.69;;;3.76;55.17
46199;BME280;31928;52.104;10.030;2023-01-20T08:03:14;100385.97;;;3.74;55.24
46199;BME280;31928;52.104;10.030;2023-01-20T08:05:41;100389.66;;;3.73;55.41
46199;BME280;31928;52.104;10.030;2023-01-20T08:08:08;100402.06;;;3.73;55.65
46199;BME280;31928;52.104;10.030;2023-01-20T08:10:34;100400.44;;;3.72;55.37
46199;BME280;31928;52.104;10.030;2023-01-20T08:13:02;100401.59;;;3.69;55.84
46199;BME280;31928;52.104;10.030;2023-01-20T08:15:29;100410.19;;;3.71;55.84
46199;BME280;31928;52.104;10.030;2023-01-20T08:17:56;100410.19;;;3.71;55.79
46199;BME280;31928;52.104;10.030;2023-01-20T08:20:23;100411.84;;;3.72;55.79
46199;BME280;31928;52.104;10.030;2023-01-20T08:22:50;100417.97;;;3.73;56.15
46199;BME280;31928;52.104;10.030;2023-01-20T08:25:17;100422.97;;;3.76;56.68
46199;BME280;31928;52.104;10.030;2023-01-20T08:27:43;100430.56;;;3.79;56.74
46199;BME280;31928;52.104;10.030;2023-01-20T08:30:12;100427.25;;;3.85;56.96
46199;BME280;31928;52.104;10.030;2023-01-20T08:32:39;100421.25;;;3.91;57.08
46199;BME280;31928;52.104;10.030;2023-01-20T08:35:06;100425.72;;;3.98;56.72
46199;BME280;31928;52.104;10.030;2023-01-20T08:37:35;100433.47;;;4.08;56.77
46199;BME280;31928;52.104;10.030;2023-01-20T08:40:04;100438.91;;;4.14;57.48
46199;BME280;31928;52.104;10.030;2023-01-20T08:42:31;100443.19;;;4.23;57.60
46199;BME280;31928;52.104;10.030;2023-01-20T08:44:58;100447.16;;;4.35;57.38
46199;BME280;31928;52.104;10.030;2023-01-20T08:47:25;100453.03;;;4.61;56.21
46199;BME280;31928;52.104;10.030;2023-01-20T08:49:52;100448.03;;;4.58;56.33
46199;BME280;31928;52.104;10.030;2023-01-20T08:52:19;100453.97;;;4.68;55.75
46199;BME280;31928;52.104;10.030;2023-01-20T08:54:45;100462.56;;;4.77;55.26
46199;BME280;31928;52.104;10.030;2023-01-20T08:57:12;100456.03;;;4.88;55.64
46199;BME280;31928;52.104;10.030;2023-01-20T08:59:40;100450.84;;;4.94;55.06
46199;BME280;31928;52.104;10.030;2023-01-20T09:02:09;100462.72;;;5.06;54.92
46199;BME280;31928;52.104;10.030;2023-01-20T09:04:37;100456.34;;;5.15;54.49
46199;BME280;31928;52.104;10.030;2023-01-20T09:07:04;100466.75;;;5.25;54.85
46199;BME280;31928;52.104;10.030;2023-01-20T09:09:30;100463.72;;;5.50;54.89
46199;BME280;31928;52.104;10.030;2023-01-20T09:11:57;100459.94;;;5.44;54.13
46199;BME280;31928;52.104;10.030;2023-01-20T09:14:24;100464.03;;;5.55;53.88
46199;BME280;31928;52.104;10.030;2023-01-20T09:16:50;100460.19;;;5.80;54.31
46199;BME280;31928;52.104;10.030;2023-01-20T09:19:17;100460.88;;;5.74;53.51
46199;BME280;31928;52.104;10.030;2023-01-20T09:21:48;100464.50;;;5.81;53.62
46199;BME280;31928;52.104;10.030;2023-01-20T09:24:21;100470.38;;;5.91;53.92
46199;BME280;31928;52.104;10.030;2023-01-20T09:26:53;100478.94;;;6.00;53.26
46199;BME280;31928;52.104;10.030;2023-01-20T09:29:25;100474.63;;;6.14;53.97
46199;BME280;31928;52.104;10.030;2023-01-20T09:31:57;100482.63;;;6.28;53.73
46199;BME280;31928;52.104;10.030;2023-01-20T09:34:27;100484.47;;;6.42;52.86
46199;BME280;31928;52.104;10.030;2023-01-20T09:37:00;100487.97;;;6.57;53.11
46199;BME280;31928;52.104;10.030;2023-01-20T09:39:47;100488.16;;;6.70;51.99
46199;BME280;31928;52.104;10.030;2023-01-20T09:46:22;100493.06;;;7.02;51.79
46199;BME280;31928;52.104;10.030;2023-01-20T09:51:53;100496.16;;;7.19;52.01
46199;BME280;31928;52.104;10.030;2023-01-20T09:54:44;100501.97;;;7.29;51.80
46199;BME280;31928;52.104;10.030;2023-01-20T09:57:13;100501.50;;;7.40;50.71
46199;BME280;31928;52.104;10.030;2023-01-20T09:59:47;100504.75;;;7.57;51.62
46199;BME280;31928;52.104;10.030;2023-01-20T10:02:25;100500.34;;;7.70;51.68
46199;BME280;31928;52.104;10.030;2023-01-20T10:04:58;100496.34;;;7.80;50.77
46199;BME280;31928;52.104;10.030;2023-01-20T10:10:35;100503.16;;;8.10;49.96
46199;BME280;31928;52.104;10.030;2023-01-20T10:15:43;100508.66;;;8.30;49.47
46199;BME280;31928;52.104;10.030;2023-01-20T10:21:01;100510.50;;;8.56;50.56
46199;BME280;31928;52.104;10.030;2023-01-20T10:23:43;100508.78;;;8.42;48.37
46199;BME280;31928;52.104;10.030;2023-01-20T10:26:19;100512.22;;;8.37;47.87
46199;BME280;31928;52.104;10.030;2023-01-20T10:28:52;100514.09;;;8.36;48.94
46199;BME280;31928;52.104;10.030;2023-01-20T10:31:26;100520.84;;;8.38;48.66
46199;BME280;31928;52.104;10.030;2023-01-20T10:33:57;100515.16;;;8.41;48.15
46199;BME280;31928;52.104;10.030;2023-01-20T10:36:28;100519.06;;;8.45;48.50
46199;BME280;31928;52.104;10.030;2023-01-20T10:39:00;100515.44;;;8.53;48.20
46199;BME280;31928;52.104;10.030;2023-01-20T10:43:57;100516.72;;;8.63;47.55
46199;BME280;31928;52.104;10.030;2023-01-20T10:46:54;100520.69;;;8.74;48.81
46199;BME280;31928;52.104;10.030;2023-01-20T10:57:33;100529.88;;;9.05;46.50
46199;BME280;31928;52.104;10.030;2023-01-20T11:00:03;100533.03;;;9.15;46.48
46199;BME280;31928;52.104;10.030;2023-01-20T11:02:33;100533.84;;;9.22;46.24
46199;BME280;31928;52.104;10.030;2023-01-20T11:05:08;100538.84;;;9.31;45.91
46199;BME280;31928;52.104;10.030;2023-01-20T11:07:42;100536.19;;;9.38;45.84
46199;BME280;31928;52.104;10.030;2023-01-20T11:10:19;100535.38;;;9.50;46.86
46199;BME280;31928;52.104;10.030;2023-01-20T11:12:48;100544.31;;;9.70;48.80
46199;BME280;31928;52.104;10.030;2023-01-20T11:15:20;100548.41;;;9.59;45.80
46199;BME280;31928;52.104;10.030;2023-01-20T11:21:10;100541.22;;;9.73;46.16
46199;BME280;31928;52.104;10.030;2023-01-20T11:23:49;100549.25;;;9.79;46.26
46199;BME280;31928;52.104;10.030;2023-01-20T11:26:20;100553.78;;;9.79;45.27
46199;BME280;31928;52.104;10.030;2023-01-20T11:31:43;100550.94;;;9.93;46.07
46199;BME280;31928;52.104;10.030;2023-01-20T11:34:33;100552.84;;;9.99;46.29
46199;BME280;31928;52.104;10.030;2023-01-20T11:45:03;100556.75;;;10.29;45.36
46199;BME280;31928;52.104;10.030;2023-01-20T11:47:58;100571.59;;;10.38;44.71
46199;BME280;31928;52.104;10.030;2023-01-20T11:50:32;100566.66;;;10.41;44.61
46199;BME280;31928;52.104;10.030;2023-01-20T11:53:12;100569.94;;;10.50;45.12
46199;BME280;31928;52.104;10.030;2023-01-20T11:55:48;100571.16;;;10.54;43.63
46199;BME280;31928;52.104;10.030;2023-01-20T11:58:18;100577.38;;;10.61;43.41
46199;BME280;31928;52.104;10.030;2023-01-20T12:00:45;100586.22;;;10.68;43.17
46199;BME280;31928;52.104;10.030;2023-01-20T12:03:26;100587.66;;;10.77;43.93
46199;BME280;31928;52.104;10.030;2023-01-20T12:05:59;100590.94;;;10.78;42.61
46199;BME280;31928;52.104;10.030;2023-01-20T12:11:23;100592.97;;;10.89;42.39
46199;BME280;31928;52.104;10.030;2023-01-20T12:14:17;100598.75;;;10.99;44.09
46199;BME280;31928;52.104;10.030;2023-01-20T12:16:52;100602.25;;;10.93;42.60
46199;BME280;31928;52.104;10.030;2023-01-20T12:19:26;100602.47;;;10.92;41.96
46199;BME280;31928;52.104;10.030;2023-01-20T12:21:59;100601.22;;;10.94;42.10
46199;BME280;31928;52.104;10.030;2023-01-20T12:24:42;100597.09;;;10.92;41.64
46199;BME280;31928;52.104;10.030;2023-01-20T12:27:29;100600.00;;;10.90;41.43
46199;BME280;31928;52.104;10.030;2023-01-20T12:30:01;100599.56;;;10.93;42.12
46199;BME280;31928;52.104;10.030;2023-01-20T12:32:28;100603.28;;;10.92;41.17
46199;BME280;31928;52.104;10.030;2023-01-20T12:34:56;100605.56;;;10.95;41.55
46199;BME280;31928;52.104;10.030;2023-01-20T12:37:50;100608.63;;;11.12;43.63
46199;BME280;31928;52.104;10.030;2023-01-20T12:42:59;100604.50;;;11.16;42.18
46199;BME280;31928;52.104;10.030;2023-01-20T12:45:32;100608.00;;;11.16;41.17
46199;BME280;31928;52.104;10.030;2023-01-20T12:48:16;100612.72;;;11.27;42.05
46199;BME280;31928;52.104;10.030;2023-01-20T12:50:55;100613.50;;;11.34;41.65
46199;BME280;31928;52.104;10.030;2023-01-20T13:02:32;100617.63;;;11.37;42.82
46199;BME280;31928;52.104;10.030;2023-01-20T13:08:21;100617.63;;;11.37;42.17
46199;BME280;31928;52.104;10.030;2023-01-20T13:11:22;100617.63;;;11.37;41.21
46199;BME280;31928;52.104;10.030;2023-01-20T13:14:13;100624.00;;;11.42;42.45
46199;BME280;31928;52.104;10.030;2023-01-20T13:17:05;100637.00;;;11.38;41.29
46199;BME280;31928;52.104;10.030;2023-01-20T13:19:39;100638.09;;;11.31;40.19
46199;BME280;31928;52.104;10.030;2023-01-20T13:22:10;100632.56;;;11.20;40.34
46199;BME280;31928;52.104;10.030;2023-01-20T13:24:40;100638.34;;;11.10;40.41
46199;BME280;31928;52.104;10.030;2023-01-20T13:27:08;100640.44;;;10.95;40.06
46199;BME280;31928;52.104;10.030;2023-01-20T13:29:51;100636.91;;;10.88;40.55
46199;BME280;31928;52.104;10.030;2023-01-20T13:32:41;100643.34;;;10.81;42.05
46199;BME280;31928;52.104;10.030;2023-01-20T13:37:57;100644.16;;;10.43;40.97
46199;BME280;31928;52.104;10.030;2023-01-20T13:51:43;100671.22;;;9.88;41.50
46199;BME280;31928;52.104;10.030;2023-01-20T13:59:49;100672.50;;;9.52;41.23
46199;BME280;31928;52.104;10.030;2023-01-20T14:02:22;100683.81;;;9.48;42.15
46199;BME280;31928;52.104;10.030;2023-01-20T14:04:51;100679.41;;;9.34;40.82
46199;BME280;31928;52.104;10.030;2023-01-20T14:07:29;100690.72;;;9.36;51.38
46199;BME280;31928;52.104;10.030;2023-01-20T14:09:58;100694.00;;;9.31;49.72
46199;BME280;31928;52.104;10.030;2023-01-20T14:12:26;100693.22;;;9.37;49.45
46199;BME280;31928;52.104;10.030;2023-01-20T14:14:53;100689.19;;;9.48;48.53
46199;BME280;31928;52.104;10.030;2023-01-20T14:17:22;100689.66;;;9.64;49.43
46199;BME280;31928;52.104;10.030;2023-01-20T14:19:51;100688.09;;;9.82;44.71
46199;BME280;31928;52.104;10.030;2023-01-20T14:22:24;100686.53;;;10.01;43.56
46199;BME280;31928;52.104;10.030;2023-01-20T14:24:53;100689.47;;;10.12;42.46
46199;BME280;31928;52.104;10.030;2023-01-20T14:27:27;100686.59;;;10.20;41.77
46199;BME280;31928;52.104;10.030;2023-01-20T14:30:12;100694.44;;;10.28;42.87
46199;BME280;31928;52.104;10.030;2023-01-20T14:32:39;100692.13;;;10.12;41.27
46199;BME280;31928;52.104;10.030;2023-01-20T14:35:25;100705.53;;;10.12;42.25
46199;BME280;31928;52.104;10.030;2023-01-20T14:37:53;100699.66;;;9.89;41.19
46199;BME280;31928;52.104;10.030;2023-01-20T14:40:29;100701.06;;;9.85;42.20
46199;BME280;31928;52.104;10.030;2023-01-20T14:43:22;100708.66;;;9.82;43.17
46199;BME280;31928;52.104;10.030;2023-01-20T14:45:50;100710.63;;;9.54;41.59
46199;BME280;31928;52.104;10.030;2023-01-20T14:48:18;100720.00;;;9.44;41.97
46199;BME280;31928;52.104;10.030;2023-01-20T14:51:00;100730.25;;;9.34;41.76
46199;BME280;31928;52.104;10.030;2023-01-20T14:53:29;100731.44;;;9.25;41.76
46199;BME280;31928;52.104;10.030;2023-01-20T14:56:00;100739.00;;;9.21;42.41
46199;BME280;31928;52.104;10.030;2023-01-20T14:58:28;100750.81;;;9.06;42.32
46199;BME280;31928;52.104;10.030;2023-01-20T15:00:59;100749.09;;;8.98;42.91
46199;BME280;31928;52.104;10.030;2023-01-20T15:03:28;100765.03;;;8.86;42.81